Hauptseite
METAR-TAF:

METAR-TAF

Flughäfen :

Ghriss, Algerien

Breite: 35-12N, Länge: 000-08E, Höhe: 514 m

Beobachtung

Neuester Wetterbericht von vor 18 Minuten, um 23:00 UTC
Wind 7 kt aus Süd/Südost
Temperatur 9°C
Luftfeuchtigkeit 81%
Luftdruck 1021 hPa
Sichtweite 10 km oder mehr
Aufgelockert bewölkt in der Höhe von 2600 ft
Aufgelockert bewölkt in der Höhe von 10000 ft

METAR: DAOV 252300Z 15007KT 9999 SCT026 SCT100 09/06 Q1021

Zeit: 00:18 (23:18 UTC)

Prognose

Neuester Wetterbericht von vor 3 Stunden und 18 Minuten, um 20:00 UTC
Gültige Prognose vom 25 um 21 UTC bis 26 um 06 UTC
Wind 6 kt aus Südost
Sichtweite: 9000 m
Durchbrochene Bewölkung in der Höhe von 2600 ft

TAF: DAOV 252000Z 2521/2606 14006KT 9000 BKN026

Wetterbeobachtungen und Prognosen von mehr als 4000 Flughäfen (METAR und TAF Bericht).

Die verfügbaren Stationen werden durch gelbe und rote Markierungen auf der Karte dargestellt.

Führen Sie die Maus auf sie, um den Namen der Station zu sehen.

Darauf klicken, um die Beobachtung von Wetterbeobachtungen und Prognosen zu sehen.

Um die Karte zu ändern : klicken Sie auf den grünen Tasten mit einem schwarzen Kreuz Zum Vergrößern, auf den grünen Button mit einem Gedankenstrich zu verkleinern, oder auf die grünen Pfeile für benachbarte Karten.


METAR-TAF: